createdAt,value
2023-03-17T00:04:53.346Z,99.90
2023-03-17T00:09:56.017Z,99.90
2023-03-17T00:14:58.542Z,99.90
2023-03-17T00:20:00.327Z,99.90
2023-03-17T00:25:02.334Z,99.90
2023-03-17T00:30:05.471Z,99.90
2023-03-17T00:35:20.087Z,99.90
2023-03-17T00:40:24.896Z,99.90
2023-03-17T00:45:27.308Z,99.90
2023-03-17T00:50:30.153Z,99.90
2023-03-17T00:55:32.014Z,99.90
2023-03-17T01:00:33.920Z,99.90
2023-03-17T01:05:35.983Z,99.90
2023-03-17T01:10:38.058Z,99.90
2023-03-17T01:15:43.900Z,99.90
2023-03-17T01:20:45.862Z,99.90
2023-03-17T01:25:47.631Z,99.90
2023-03-17T01:30:50.169Z,99.90
2023-03-17T01:35:52.382Z,99.90
2023-03-17T01:40:54.845Z,99.90
2023-03-17T01:46:27.859Z,99.90
2023-03-17T01:51:51.465Z,99.90
2023-03-17T01:56:56.264Z,99.90
2023-03-17T02:02:03.665Z,99.90
2023-03-17T02:07:06.017Z,99.90
2023-03-17T02:12:09.300Z,99.90
2023-03-17T02:17:11.334Z,99.90
2023-03-17T02:22:13.818Z,99.90
2023-03-17T02:27:27.794Z,99.90
2023-03-17T02:32:29.834Z,99.90
2023-03-17T02:37:31.603Z,99.90
2023-03-17T02:42:35.740Z,99.90
2023-03-17T02:47:37.604Z,99.90
2023-03-17T02:52:39.386Z,99.90
2023-03-17T02:57:41.242Z,99.90
2023-03-17T03:02:43.063Z,99.90
2023-03-17T03:07:44.806Z,99.90
2023-03-17T03:12:47.496Z,99.90
2023-03-17T03:17:50.534Z,99.90
2023-03-17T03:22:52.535Z,99.90
2023-03-17T03:27:54.337Z,99.90
2023-03-17T03:32:56.423Z,99.90
2023-03-17T03:37:58.567Z,99.90
2023-03-17T03:43:07.507Z,99.90
2023-03-17T03:48:14.932Z,99.90
2023-03-17T03:53:17.007Z,99.90
2023-03-17T03:58:18.797Z,99.90
2023-03-17T04:03:20.662Z,99.90
2023-03-17T04:08:22.549Z,99.90
2023-03-17T04:13:24.421Z,99.90
2023-03-17T04:18:26.364Z,99.90
2023-03-17T04:23:28.985Z,99.90
2023-03-17T04:28:31.218Z,99.90
2023-03-17T04:33:32.979Z,99.90
2023-03-17T04:38:34.711Z,99.90
2023-03-17T04:43:36.550Z,99.90
2023-03-17T04:48:38.378Z,99.90
2023-03-17T04:53:40.379Z,99.90
2023-03-17T04:58:42.223Z,99.90
2023-03-17T05:03:44.021Z,99.90
2023-03-17T05:08:45.858Z,99.90
2023-03-17T05:13:47.941Z,99.90
2023-03-17T05:18:49.687Z,99.90
2023-03-17T05:23:53.308Z,99.90
2023-03-17T05:28:56.256Z,99.90
2023-03-17T05:33:59.330Z,99.90
2023-03-17T05:39:01.304Z,99.90
2023-03-17T05:44:03.523Z,99.90
2023-03-17T05:49:05.363Z,99.90
2023-03-17T05:54:07.392Z,99.90
2023-03-17T05:59:10.419Z,99.90
2023-03-17T06:04:12.670Z,99.90
2023-03-17T06:09:14.867Z,99.90
2023-03-17T06:14:16.998Z,99.90
2023-03-17T06:19:18.956Z,99.90
2023-03-17T06:24:20.870Z,99.90
2023-03-17T06:29:22.866Z,99.90
2023-03-17T06:34:25.550Z,99.90
2023-03-17T06:39:27.754Z,99.90
2023-03-17T06:44:29.535Z,99.90
2023-03-17T06:49:31.718Z,99.90
2023-03-17T06:54:33.631Z,99.90
2023-03-17T06:59:35.577Z,99.90
2023-03-17T07:04:38.360Z,99.90
2023-03-17T07:09:40.752Z,99.90
2023-03-17T07:14:42.993Z,99.90
2023-03-17T07:19:45.131Z,99.90
2023-03-17T07:24:49.150Z,99.90
2023-03-17T07:29:51.934Z,99.90
2023-03-17T07:34:54.690Z,99.90
2023-03-17T07:39:56.911Z,99.90
2023-03-17T07:44:58.631Z,99.90
2023-03-17T07:50:00.371Z,99.90
2023-03-17T07:55:02.644Z,99.90
2023-03-17T08:00:12.209Z,99.90
2023-03-17T08:05:14.317Z,99.90
2023-03-17T08:10:16.597Z,99.90
2023-03-17T08:15:19.358Z,99.90
2023-03-17T08:20:21.838Z,99.90
2023-03-17T08:25:24.699Z,99.90
2023-03-17T08:30:27.478Z,99.90
2023-03-17T08:35:30.177Z,99.90
2023-03-17T08:40:32.482Z,99.90
2023-03-17T08:45:34.416Z,99.90
2023-03-17T08:50:36.179Z,99.90
2023-03-17T08:55:37.877Z,99.90
2023-03-17T09:00:40.843Z,99.90
2023-03-17T09:05:44.131Z,99.90
2023-03-17T09:10:45.857Z,99.90
2023-03-17T09:15:48.673Z,99.90
2023-03-17T09:20:51.285Z,99.90
2023-03-17T09:25:53.134Z,99.90
2023-03-17T09:31:02.238Z,99.90
2023-03-17T09:36:04.395Z,99.90
2023-03-17T09:41:20.052Z,99.90
2023-03-17T09:46:28.164Z,99.90
2023-03-17T09:51:32.520Z,99.90
2023-03-17T09:56:36.564Z,99.90
2023-03-17T10:01:41.698Z,99.90
2023-03-17T10:06:46.879Z,99.90
2023-03-17T10:12:09.988Z,99.90
2023-03-17T10:17:21.534Z,99.90
2023-03-17T10:22:32.308Z,99.90
2023-03-17T10:27:37.378Z,99.90
2023-03-17T10:32:41.160Z,99.90
2023-03-17T10:37:44.173Z,99.90
2023-03-17T10:42:49.605Z,99.90
2023-03-17T10:47:51.396Z,99.90
2023-03-17T10:53:18.352Z,99.90
2023-03-17T10:58:30.934Z,99.90
2023-03-17T11:03:38.867Z,99.90
2023-03-17T11:08:51.646Z,99.90
2023-03-17T11:14:11.748Z,99.90
2023-03-17T11:19:18.573Z,99.90
2023-03-17T11:24:40.742Z,99.90
2023-03-17T11:30:14.851Z,99.90
2023-03-17T11:35:17.429Z,99.90
2023-03-17T11:40:54.265Z,99.90
2023-03-17T11:46:15.907Z,99.90
2023-03-17T11:51:33.160Z,99.90
2023-03-17T11:57:01.260Z,99.90
2023-03-17T12:02:03.068Z,99.90
2023-03-17T12:07:18.442Z,99.90
2023-03-17T12:12:28.176Z,99.90
2023-03-17T12:17:52.266Z,99.90
2023-03-17T12:23:03.236Z,99.90
2023-03-17T12:28:27.186Z,99.90
2023-03-17T12:33:45.622Z,99.90
2023-03-17T12:39:13.769Z,99.90
2023-03-17T12:44:36.828Z,99.90
2023-03-17T12:50:06.929Z,99.90
2023-03-17T12:55:18.248Z,99.90
2023-03-17T13:00:50.670Z,99.90
2023-03-17T13:05:58.764Z,99.90
2023-03-17T13:11:45.480Z,99.90
2023-03-17T13:16:48.896Z,99.90
2023-03-17T13:22:05.813Z,99.90
2023-03-17T13:27:13.152Z,99.90
2023-03-17T13:32:27.103Z,99.90
2023-03-17T13:37:28.961Z,99.90
2023-03-17T13:42:55.011Z,99.90
2023-03-17T13:48:27.266Z,99.90
2023-03-17T13:53:35.189Z,99.90
2023-03-17T13:58:52.986Z,99.90
2023-03-17T14:03:56.606Z,99.90
2023-03-17T14:09:08.064Z,99.90
2023-03-17T14:14:40.644Z,99.90
2023-03-17T14:20:06.289Z,99.90
2023-03-17T14:25:25.334Z,99.90
2023-03-17T14:30:33.213Z,99.90
2023-03-17T14:35:43.012Z,99.90
2023-03-17T14:40:45.010Z,99.90
2023-03-17T14:46:01.626Z,99.90
2023-03-17T14:51:26.854Z,99.90
2023-03-17T14:56:40.178Z,99.90
2023-03-17T15:01:49.944Z,99.90
2023-03-17T15:06:55.971Z,99.90
2023-03-17T15:12:16.307Z,99.90
2023-03-17T15:17:38.377Z,99.90
2023-03-17T15:22:46.839Z,99.90
2023-03-17T15:27:48.718Z,99.90
2023-03-17T15:32:53.450Z,99.90
2023-03-17T15:37:56.006Z,99.90
2023-03-17T15:42:59.031Z,99.90
2023-03-17T15:48:01.259Z,99.90
2023-03-17T15:53:03.893Z,99.90
2023-03-17T15:58:06.035Z,99.90
2023-03-17T16:03:31.197Z,99.90
2023-03-17T16:08:33.880Z,99.90
2023-03-17T16:13:35.591Z,99.70
2023-03-17T16:18:38.265Z,99.80
2023-03-17T16:23:40.581Z,99.80
2023-03-17T16:28:44.536Z,99.90
2023-03-17T16:33:46.732Z,99.60
2023-03-17T16:38:49.682Z,99.60
2023-03-17T16:43:57.761Z,99.70
2023-03-17T16:48:59.505Z,99.90
2023-03-17T16:54:01.212Z,99.90
2023-03-17T16:59:03.049Z,99.40
2023-03-17T17:04:10.317Z,99.70
2023-03-17T17:09:12.221Z,99.90
2023-03-17T17:14:13.943Z,99.60
2023-03-17T17:19:17.329Z,99.10
2023-03-17T17:24:19.115Z,98.80
2023-03-17T17:29:20.853Z,97.90
2023-03-17T17:34:22.819Z,98.20
2023-03-17T17:39:24.629Z,98.60
2023-03-17T17:44:26.355Z,98.20
2023-03-17T17:49:28.130Z,97.70
2023-03-17T17:54:29.873Z,98.00
2023-03-17T17:59:31.802Z,97.20
2023-03-17T18:04:33.857Z,97.20
2023-03-17T18:09:36.112Z,97.40
2023-03-17T18:14:37.863Z,96.60
2023-03-17T18:19:39.639Z,96.60
2023-03-17T18:24:41.402Z,96.10
2023-03-17T18:29:43.602Z,96.60
2023-03-17T18:34:46.860Z,95.90
2023-03-17T18:40:01.521Z,95.10
2023-03-17T18:45:11.692Z,95.80
2023-03-17T18:50:15.506Z,94.80
2023-03-17T18:55:18.006Z,94.60
2023-03-17T19:00:19.928Z,94.30
2023-03-17T19:05:22.021Z,94.40
2023-03-17T19:10:23.789Z,94.60
2023-03-17T19:15:26.118Z,94.80
2023-03-17T19:20:28.167Z,93.60
2023-03-17T19:25:30.394Z,94.50
2023-03-17T19:30:32.637Z,93.20
2023-03-17T19:35:34.639Z,93.30
2023-03-17T19:40:37.254Z,92.20
2023-03-17T19:45:39.008Z,91.90
2023-03-17T19:50:41.045Z,92.00
2023-03-17T19:55:44.717Z,91.10
2023-03-17T20:00:46.521Z,90.60
2023-03-17T20:05:48.429Z,90.30
2023-03-17T20:10:54.286Z,91.00
2023-03-17T20:15:56.158Z,90.70
2023-03-17T20:20:58.702Z,90.20
2023-03-17T20:26:01.316Z,91.70
2023-03-17T20:31:04.465Z,90.70
2023-03-17T20:36:07.033Z,89.00
2023-03-17T20:41:15.039Z,88.50
2023-03-17T20:46:20.706Z,90.10
2023-03-17T20:51:22.502Z,90.20
2023-03-17T20:56:26.765Z,87.30
2023-03-17T21:01:29.354Z,86.80
2023-03-17T21:06:31.435Z,89.40
2023-03-17T21:11:33.271Z,87.10
2023-03-17T21:16:36.488Z,87.90
2023-03-17T21:21:38.426Z,88.40
2023-03-17T21:26:40.161Z,84.90
2023-03-17T21:31:42.353Z,84.50
2023-03-17T21:36:44.679Z,84.80
2023-03-17T21:41:48.808Z,84.30
2023-03-17T21:46:50.823Z,85.00
2023-03-17T21:51:52.790Z,84.00
2023-03-17T21:56:54.664Z,84.20
2023-03-17T22:01:56.854Z,82.30
2023-03-17T22:06:58.990Z,83.50
2023-03-17T22:12:00.824Z,82.80
2023-03-17T22:17:05.330Z,81.30
2023-03-17T22:22:08.327Z,83.70
2023-03-17T22:27:10.083Z,81.20
2023-03-17T22:32:11.976Z,79.40
2023-03-17T22:37:13.907Z,77.10
2023-03-17T22:42:15.713Z,77.70
2023-03-17T22:47:17.465Z,76.70
2023-03-17T22:52:19.202Z,74.30
2023-03-17T22:57:21.204Z,74.30
2023-03-17T23:02:23.186Z,74.50
2023-03-17T23:07:24.929Z,77.40
2023-03-17T23:12:28.229Z,73.00
2023-03-17T23:17:29.952Z,73.20
2023-03-17T23:22:32.164Z,72.70
2023-03-17T23:27:33.905Z,74.90
2023-03-17T23:32:35.816Z,71.40
2023-03-17T23:37:37.804Z,74.20
2023-03-17T23:42:39.512Z,73.90
2023-03-17T23:47:41.973Z,75.20
2023-03-17T23:52:44.321Z,76.20
2023-03-17T23:57:46.487Z,73.80
